Time;durP1;ratioP1;P1;durP2;ratioP2;P2;SDS_P1;SDS_P2;PMS_P1;PMS_P2;Temp;Humidity;BMP_temperature;BMP_pressure;BME280_temperature;BME280_humidity;BME280_pressure;Samples;Min_cycle;Max_cycle;Signal;HPM_P1;HPM_P2
2023/01/06 00:02:25;;;;;;;4.45;4.05;;;;;;;8.60;74.39;62877.25;5013940;28;20369;-80
2023/01/06 00:04:52;;;;;;;4.22;3.30;;;;;;;8.73;74.22;62900.84;5013109;28;20233;-82
2023/01/06 00:07:19;;;;;;;7.40;3.75;;;;;;;8.81;73.98;62912.16;5012613;28;20219;-81
2023/01/06 00:09:46;;;;;;;4.28;3.97;;;;;;;8.83;73.85;62906.09;5008299;28;20230;-79
2023/01/06 00:12:13;;;;;;;5.55;3.38;;;;;;;8.91;76.17;62914.38;5012465;28;20279;-79
2023/01/06 00:14:41;;;;;;;5.70;2.92;;;;;;;9.04;76.26;62927.81;5012829;28;20207;-81
2023/01/06 00:17:10;;;;;;;3.70;3.05;;;;;;;9.12;76.28;62938.59;5012364;28;20227;-82
2023/01/06 00:19:37;;;;;;;5.88;3.40;;;;;;;9.22;76.21;62948.94;5009080;28;20326;-82
2023/01/06 00:22:04;;;;;;;3.50;3.20;;;;;;;9.21;77.11;62950.97;5012728;28;20219;-80
2023/01/06 00:24:32;;;;;;;3.85;3.55;;;;;;;9.22;77.67;62946.94;5012162;28;20235;-82
2023/01/06 00:26:59;;;;;;;3.72;3.42;;;;;;;9.14;77.92;62943.75;5010599;28;20219;-80
2023/01/06 00:29:27;;;;;;;3.75;3.40;;;;;;;9.21;77.98;62942.84;5010943;28;20203;-81
2023/01/06 00:31:54;;;;;;;6.55;3.80;;;;;;;9.20;78.47;62949.94;5013582;28;20227;-81
2023/01/06 00:34:22;;;;;;;5.50;3.22;;;;;;;9.18;78.80;62944.81;5011916;28;20200;-81
2023/01/06 00:36:49;;;;;;;3.92;3.50;;;;;;;9.14;79.74;62946.28;5001477;28;20230;-80
2023/01/06 00:39:17;;;;;;;4.88;3.55;;;;;;;9.13;80.46;62945.25;4991864;28;20219;-82
2023/01/06 00:44:28;;;;;;;3.33;3.05;;;;;;;9.00;82.46;62924.19;4992568;28;20255;-81
2023/01/06 00:46:55;;;;;;;3.95;3.30;;;;;;;8.88;82.62;62914.31;5013837;28;20222;-80
2023/01/06 00:49:24;;;;;;;4.50;3.70;;;;;;;8.95;82.86;62921.03;5011991;28;20188;-78
2023/01/06 00:51:51;;;;;;;8.15;4.32;;;;;;;8.80;83.85;62908.59;5011159;28;20246;-79
2023/01/06 00:54:18;;;;;;;3.40;3.10;;;;;;;8.78;84.44;62904.00;5004840;28;20199;-80
2023/01/06 00:56:47;;;;;;;6.60;3.50;;;;;;;8.83;84.43;62909.16;5012175;28;20223;-81
2023/01/06 00:59:15;;;;;;;3.00;2.70;;;;;;;8.71;84.22;62899.31;5011696;28;20203;-80
2023/01/06 01:01:44;;;;;;;3.83;3.38;;;;;;;8.80;83.95;62906.03;5011443;28;20223;-80
2023/01/06 01:04:12;;;;;;;3.58;3.22;;;;;;;8.74;84.07;62899.84;4995920;28;20263;-80
2023/01/06 01:06:41;;;;;;;3.17;2.92;;;;;;;8.79;84.99;62902.47;4990391;28;20220;-77
2023/01/06 01:09:10;;;;;;;9.85;3.58;;;;;;;8.78;85.46;62904.00;4992077;28;20271;-80
2023/01/06 01:14:21;;;;;;;3.58;3.28;;;;;;;8.75;85.53;62897.84;4992991;28;20211;-81
2023/01/06 01:16:48;;;;;;;4.10;3.25;;;;;;;8.76;85.24;62901.94;5009429;28;20219;-81
2023/01/06 01:19:16;;;;;;;4.65;3.08;;;;;;;8.69;85.51;62889.09;5009880;28;20199;-79
2023/01/06 01:21:44;;;;;;;3.25;3.05;;;;;;;8.67;85.58;62890.09;5001142;28;20242;-81
2023/01/06 01:24:11;;;;;;;4.10;3.13;;;;;;;8.73;85.07;62898.31;4992901;28;20235;-80
2023/01/06 01:26:38;;;;;;;4.72;3.50;;;;;;;8.70;85.03;62900.78;4992519;28;20243;-79
2023/01/06 01:29:05;;;;;;;4.22;2.97;;;;;;;8.69;85.38;62894.69;4990972;28;20223;-81
2023/01/06 01:31:33;;;;;;;4.53;3.45;;;;;;;8.58;86.12;62880.78;5004099;28;20540;-81
2023/01/06 01:34:00;;;;;;;4.65;3.40;;;;;;;8.71;85.19;62898.78;5010754;28;20345;-80
2023/01/06 01:36:27;;;;;;;3.72;3.25;;;;;;;8.68;84.61;62895.69;5010695;28;20220;-79
2023/01/06 01:38:57;;;;;;;2.92;2.72;;;;;;;8.66;84.41;62888.53;5010802;28;20246;-79
2023/01/06 01:41:25;;;;;;;3.00;2.75;;;;;;;8.76;83.24;62901.94;4991220;28;20262;-81
2023/01/06 01:43:54;;;;;;;2.08;1.90;;;;;;;8.79;81.34;62901.97;4992027;28;20329;-79
2023/01/06 01:46:25;;;;;;;2.45;2.30;;;;;;;8.91;79.71;62916.91;4989627;28;20250;-80
2023/01/06 01:48:55;;;;;;;2.20;2.10;;;;;;;8.93;77.74;62916.94;4989026;28;20215;-80
2023/01/06 01:51:28;;;;;;;2.63;2.42;;;;;;;8.99;75.39;62925.19;4990161;28;20220;-79
2023/01/06 01:54:01;;;;;;;5.03;1.50;;;;;;;9.04;73.16;62928.31;4993267;28;20489;-79
2023/01/06 01:56:33;;;;;;;1.88;1.77;;;;;;;9.14;71.17;62941.19;4988550;28;20220;-80
2023/01/06 01:59:04;;;;;;;2.42;2.03;;;;;;;9.12;70.70;62933.53;5006502;28;20263;-80
2023/01/06 02:01:32;;;;;;;2.53;2.08;;;;;;;9.20;71.43;62946.88;5007861;28;20294;-81
2023/01/06 02:03:59;;;;;;;1.83;1.70;;;;;;;9.11;71.98;62940.13;5008357;28;20241;-79
2023/01/06 02:06:28;;;;;;;1.40;1.00;;;;;;;9.08;71.58;62932.44;5008659;28;20219;-81
2023/01/06 02:09:03;;;;;;;0.77;0.77;;;;;;;9.33;68.60;62957.78;5009827;28;20293;-79
2023/01/06 02:11:33;;;;;;;0.57;0.57;;;;;;;9.44;63.85;62969.13;5007788;28;20490;-80
2023/01/06 02:14:09;;;;;;;0.60;0.60;;;;;;;9.47;60.88;62972.25;5009707;28;20206;-79
2023/01/06 02:16:54;;;;;;;1.25;1.02;;;;;;;9.60;59.55;62988.22;4995203;28;20223;-81
2023/01/06 02:19:39;;;;;;;0.80;0.80;;;;;;;9.57;60.31;62982.59;4988915;28;20200;-80
2023/01/06 02:22:26;;;;;;;0.88;0.88;;;;;;;9.55;59.53;62983.06;4990653;28;20219;-81
2023/01/06 02:25:25;;;;;;;1.02;1.02;;;;;;;9.48;58.43;62973.28;4995569;28;20231;-79
2023/01/06 02:28:20;;;;;;;0.85;0.85;;;;;;;9.49;59.15;62978.88;4992029;28;20199;-80
2023/01/06 02:31:27;;;;;;;5.60;1.70;;;;;;;9.44;61.88;62968.63;5010694;28;20239;-80
2023/01/06 02:34:03;;;;;;;1.30;1.20;;;;;;;9.15;65.56;62944.78;5001038;28;20207;-79
2023/01/06 02:36:39;;;;;;;1.60;1.50;;;;;;;9.05;66.76;62928.84;4988910;28;20243;-79
2023/01/06 02:39:19;;;;;;;1.38;1.20;;;;;;;8.99;67.34;62922.66;4991673;28;20207;-79
2023/01/06 02:41:53;;;;;;;2.03;1.90;;;;;;;8.86;67.85;62909.19;4988186;28;20292;-82
2023/01/06 02:44:28;;;;;;;3.03;1.88;;;;;;;8.57;69.82;62882.28;5004126;28;20277;-79
2023/01/06 02:47:07;;;;;;;1.83;1.73;;;;;;;8.45;70.03;62869.38;5009344;28;20278;-79
2023/01/06 02:49:44;;;;;;;2.55;1.88;;;;;;;8.50;70.53;62872.53;5009151;28;20211;-80
2023/01/06 02:52:19;;;;;;;1.38;1.33;;;;;;;8.45;70.57;62867.34;4999589;28;20310;-80
2023/01/06 02:54:55;;;;;;;2.42;1.50;;;;;;;8.51;70.25;62878.63;4989736;28;20218;-81
2023/01/06 02:57:28;;;;;;;1.67;1.58;;;;;;;8.55;70.40;62877.16;4988583;28;20295;-80
2023/01/06 03:00:03;;;;;;;2.10;1.90;;;;;;;8.53;69.99;62872.56;4988826;28;20192;-80
2023/01/06 03:02:34;;;;;;;1.67;1.58;;;;;;;8.47;70.03;62869.44;5006380;28;20246;-81
2023/01/06 03:05:04;;;;;;;2.45;1.92;;;;;;;8.60;69.98;62887.94;5008177;28;20524;-79
2023/01/06 03:07:33;;;;;;;2.03;1.92;;;;;;;8.53;68.87;62877.63;5006893;28;20262;-81
2023/01/06 03:10:03;;;;;;;1.55;1.45;;;;;;;8.57;68.72;62884.84;5006187;28;20399;-78
2023/01/06 03:12:35;;;;;;;1.45;1.40;;;;;;;8.58;67.28;62885.84;5006983;28;20219;-80
2023/01/06 03:15:02;;;;;;;2.40;1.75;;;;;;;8.64;64.27;62891.53;5008319;28;20231;-80
2023/01/06 03:17:31;;;;;;;2.63;1.70;;;;;;;8.62;65.81;62889.47;5007780;28;20243;-79
2023/01/06 03:19:58;;;;;;;2.22;2.05;;;;;;;8.63;67.38;62887.97;5006048;28;20207;-78
2023/01/06 03:22:26;;;;;;;1.38;1.35;;;;;;;8.50;68.18;62880.13;5006603;28;20548;-79
2023/01/06 03:24:54;;;;;;;1.83;1.73;;;;;;;8.47;68.16;62869.44;5007378;28;20338;-79
2023/01/06 03:27:25;;;;;;;1.27;1.23;;;;;;;8.55;66.58;62877.16;5011439;28;20234;-78
2023/01/06 03:29:53;;;;;;;2.40;1.40;;;;;;;8.53;67.50;62880.69;5010044;28;20215;-79
2023/01/06 03:32:26;;;;;;;2.85;2.03;;;;;;;8.46;69.28;62870.41;5012894;28;20223;-79
2023/01/06 03:35:05;;;;;;;1.75;1.45;;;;;;;8.40;71.54;62869.28;4995563;28;20365;-80
2023/01/06 03:37:41;;;;;;;1.75;1.65;;;;;;;8.24;72.79;62842.59;5008605;28;20223;-79
2023/01/06 03:40:18;;;;;;;2.05;1.60;;;;;;;8.28;72.54;62851.81;5011002;28;20191;-78
2023/01/06 03:45:49;;;;;;;2.13;1.95;;;;;;;8.15;73.37;62836.34;5011391;28;20279;-80
2023/01/06 03:48:24;;;;;;;1.20;1.20;;;;;;;8.15;73.12;62841.41;4992704;28;20204;-79
2023/01/06 03:51:01;;;;;;;2.65;1.65;;;;;;;8.05;73.81;62831.09;4991037;28;20219;-81
2023/01/06 03:53:38;;;;;;;2.42;1.90;;;;;;;8.06;74.70;62827.03;5009643;28;20271;-78
2023/01/06 03:56:15;;;;;;;2.60;1.67;;;;;;;8.00;74.93;62826.47;5010979;28;20235;-80
2023/01/06 03:58:46;;;;;;;1.83;1.73;;;;;;;7.93;75.00;62814.16;5010375;28;20195;-79
2023/01/06 04:01:14;;;;;;;1.42;1.33;;;;;;;7.99;73.50;62822.88;5009198;28;20219;-80
2023/01/06 04:03:45;;;;;;;1.25;1.20;;;;;;;7.97;73.32;62818.28;5011907;28;20369;-79
2023/01/06 04:06:13;;;;;;;2.95;1.10;;;;;;;7.94;72.68;62817.19;5009668;28;20238;-80
2023/01/06 04:08:40;;;;;;;2.28;1.98;;;;;;;7.95;72.66;62813.16;5009609;28;20207;-80
2023/01/06 04:12:37;;;;;;;1.50;1.40;;;;;;;7.86;72.05;62808.94;4996132;28;20223;-80
2023/01/06 04:13:54;;;;;;;1.38;1.27;;;;;;;7.95;71.57;62816.22;4993082;28;20340;-79
2023/01/06 04:16:21;;;;;;;1.52;1.42;;;;;;;7.95;71.40;62818.75;5009780;28;20244;-79
2023/01/06 04:18:47;;;;;;;1.63;1.60;;;;;;;7.94;70.99;62817.72;5010847;28;20263;-80
2023/01/06 04:21:16;;;;;;;2.60;1.85;;;;;;;7.91;70.66;62812.09;5010564;28;20251;-80
2023/01/06 04:23:43;;;;;;;2.00;1.80;;;;;;;8.01;69.81;62826.97;5010725;28;20215;-82
2023/01/06 04:26:09;;;;;;;1.60;1.50;;;;;;;7.97;70.53;62817.78;5009590;28;20269;-80
2023/01/06 04:28:37;;;;;;;1.58;1.50;;;;;;;7.96;71.12;62817.25;5009817;28;20223;-79
2023/01/06 04:31:04;;;;;;;1.75;1.65;;;;;;;7.82;71.38;62802.78;5009578;28;20282;-78
2023/01/06 04:33:31;;;;;;;1.38;1.27;;;;;;;7.90;68.11;62810.53;5002146;28;20214;-81
2023/01/06 04:35:58;;;;;;;1.30;1.20;;;;;;;7.85;68.74;62808.41;4990836;28;20224;-79
2023/01/06 04:38:26;;;;;;;1.70;1.60;;;;;;;7.88;69.56;62814.06;5005819;28;20199;-80
2023/01/06 04:40:53;;;;;;;1.13;1.13;;;;;;;7.87;70.87;62813.03;5011243;28;20223;-80
2023/01/06 04:43:20;;;;;;;1.30;1.30;;;;;;;7.80;72.11;62802.75;5008785;28;20203;-79
2023/01/06 04:45:47;;;;;;;1.42;1.33;;;;;;;7.78;72.76;62798.66;5006268;28;20479;-81
2023/01/06 04:48:14;;;;;;;1.63;1.52;;;;;;;7.77;71.27;62797.09;4991103;28;20223;-80
2023/01/06 04:50:41;;;;;;;1.70;1.45;;;;;;;7.83;70.39;62808.91;4990021;28;20198;-78
2023/01/06 04:53:11;;;;;;;1.30;1.20;;;;;;;7.83;70.13;62808.38;4990203;28;20196;-80
2023/01/06 04:55:40;;;;;;;1.80;1.50;;;;;;;7.77;69.83;62799.63;4999278;28;20262;-78
2023/01/06 04:58:08;;;;;;;1.52;1.42;;;;;;;7.81;70.45;62799.22;5008817;28;20238;-80
2023/01/06 05:00:35;;;;;;;1.52;1.50;;;;;;;7.80;70.44;62800.72;5008265;28;20222;-80
2023/01/06 05:03:01;;;;;;;2.10;1.30;;;;;;;7.84;70.49;62804.34;5010658;28;20199;-80
2023/01/06 05:05:28;;;;;;;1.52;1.45;;;;;;;7.80;72.18;62802.75;4993802;28;20232;-79
2023/01/06 05:07:55;;;;;;;1.73;1.63;;;;;;;7.79;73.12;62802.22;4990576;28;20240;-80
2023/01/06 05:10:22;;;;;;;1.50;1.40;;;;;;;7.75;73.42;62792.50;4989052;28;20207;-80
2023/01/06 05:12:51;;;;;;;1.00;1.00;;;;;;;7.73;73.63;62793.00;4991382;28;20467;-80
2023/01/06 05:15:17;;;;;;;1.67;1.48;;;;;;;7.75;73.65;62797.56;4997464;28;20211;-80
2023/01/06 05:17:44;;;;;;;2.13;1.90;;;;;;;7.74;74.24;62799.59;5009095;28;20466;-80
2023/01/06 05:20:12;;;;;;;1.80;1.70;;;;;;;7.69;74.39;62789.38;5011032;28;20214;-79
2023/01/06 05:22:39;;;;;;;1.27;1.23;;;;;;;7.71;75.00;62793.47;5009594;28;20219;-80
2023/01/06 05:25:07;;;;;;;2.60;1.50;;;;;;;7.65;74.29;62787.25;5009872;28;20227;-80
2023/01/06 05:27:34;;;;;;;1.55;1.50;;;;;;;7.59;74.58;62781.56;5007937;28;20389;-80
2023/01/06 05:30:02;;;;;;;1.70;1.60;;;;;;;7.64;72.51;62783.69;5009443;28;20207;-80
2023/01/06 05:32:29;;;;;;;2.05;1.40;;;;;;;7.62;68.88;62779.09;4991876;28;20215;-79
2023/01/06 05:34:56;;;;;;;1.63;1.52;;;;;;;7.75;67.92;62802.63;4989191;28;20204;-81
2023/01/06 05:37:23;;;;;;;1.60;1.50;;;;;;;7.64;67.34;62784.22;4999223;28;20227;-78
2023/01/06 05:39:50;;;;;;;1.38;1.38;;;;;;;7.58;68.47;62780.56;5000205;28;20214;-79
2023/01/06 05:42:17;;;;;;;1.70;1.60;;;;;;;7.67;68.46;62792.38;5007282;28;20230;-81
2023/01/06 05:44:44;;;;;;;1.77;1.67;;;;;;;7.64;68.31;62786.22;4999817;28;20204;-79
2023/01/06 05:47:12;;;;;;;1.50;1.40;;;;;;;7.65;68.06;62787.25;5007657;28;20219;-80
2023/01/06 05:49:39;;;;;;;2.03;1.70;;;;;;;7.61;68.70;62781.09;4996276;28;20231;-80
2023/01/06 05:52:06;;;;;;;1.45;1.35;;;;;;;7.58;67.62;62778.00;4987896;28;20220;-81
2023/01/06 05:54:33;;;;;;;1.17;1.05;;;;;;;7.60;65.52;62780.09;4994156;28;20500;-81
2023/01/06 05:57:00;;;;;;;1.52;1.20;;;;;;;7.60;65.42;62779.56;5008518;28;20258;-82
2023/01/06 05:59:27;;;;;;;1.20;1.20;;;;;;;7.60;65.41;62780.09;5000832;28;20211;-81
2023/01/06 06:01:54;;;;;;;1.08;1.02;;;;;;;7.61;64.38;62783.63;4989696;28;20224;-80
2023/01/06 06:04:22;;;;;;;1.30;1.20;;;;;;;7.65;64.24;62785.25;5007819;28;20211;-79
2023/01/06 06:06:49;;;;;;;1.48;1.38;;;;;;;7.67;64.68;62791.84;5007948;28;20310;-80
2023/01/06 06:09:17;;;;;;;1.40;1.23;;;;;;;7.56;64.78;62775.94;5008911;28;20235;-81
2023/01/06 06:11:43;;;;;;;1.42;1.30;;;;;;;7.65;65.04;62787.25;5007057;28;20223;-80
2023/01/06 06:14:10;;;;;;;2.15;1.27;;;;;;;7.63;64.72;62780.13;5009128;28;20226;-80
2023/01/06 06:16:37;;;;;;;1.38;1.27;;;;;;;7.65;63.23;62787.25;5008541;28;20223;-81
2023/01/06 06:19:04;;;;;;;1.00;0.90;;;;;;;7.67;62.62;62789.84;5006898;28;20203;-80
2023/01/06 06:21:33;;;;;;;1.65;0.77;;;;;;;7.73;60.86;62795.53;5007346;28;20395;-82
2023/01/06 06:24:01;;;;;;;0.93;0.90;;;;;;;7.72;60.62;62792.47;5006637;28;20197;-80
2023/01/06 06:26:28;;;;;;;0.95;0.93;;;;;;;7.83;61.02;62803.84;5008589;28;20254;-81
2023/01/06 06:28:55;;;;;;;2.28;1.10;;;;;;;7.81;60.88;62806.31;5008503;28;20235;-81
2023/01/06 06:31:24;;;;;;;0.73;0.73;;;;;;;7.81;61.47;62801.25;5005213;28;20460;-80
2023/01/06 06:33:52;;;;;;;1.25;0.80;;;;;;;7.81;61.55;62801.25;5007102;28;20211;-80
2023/01/06 06:36:19;;;;;;;0.82;0.82;;;;;;;7.79;61.76;62799.69;5008713;28;20290;-80
2023/01/06 06:38:49;;;;;;;1.30;1.20;;;;;;;7.89;62.29;62812.03;5005600;28;20242;-81
2023/01/06 06:41:17;;;;;;;1.10;1.10;;;;;;;7.82;62.92;62802.78;5008420;28;20215;-79
2023/01/06 06:43:44;;;;;;;1.35;1.30;;;;;;;7.90;62.91;62816.09;5005199;28;20218;-79
2023/01/06 06:46:12;;;;;;;2.40;1.10;;;;;;;7.88;63.05;62813.53;5008777;28;20227;-80
2023/01/06 06:48:39;;;;;;;1.23;1.13;;;;;;;7.90;62.83;62813.06;5006617;28;20296;-79
2023/01/06 06:51:08;;;;;;;1.33;0.88;;;;;;;7.89;62.00;62812.03;5007410;28;20223;-82
2023/01/06 06:53:36;;;;;;;0.85;0.85;;;;;;;8.02;61.78;62822.94;5008999;28;20195;-80
2023/01/06 06:56:07;;;;;;;1.35;0.93;;;;;;;8.00;62.33;62823.91;5007493;28;20226;-80
2023/01/06 06:58:34;;;;;;;0.95;0.95;;;;;;;8.12;61.57;62833.78;5008731;28;20258;-81
2023/01/06 07:01:04;;;;;;;0.73;0.73;;;;;;;8.01;61.55;62821.88;5011791;28;20326;-80
2023/01/06 07:03:31;;;;;;;0.80;0.80;;;;;;;8.06;60.12;62829.59;5011284;28;20254;-79
2023/01/06 07:05:58;;;;;;;0.75;0.75;;;;;;;8.16;61.42;62840.44;5000886;28;20426;-79
2023/01/06 07:08:26;;;;;;;0.75;0.75;;;;;;;8.24;60.75;62845.66;5013307;28;20207;-80
2023/01/06 07:10:53;;;;;;;4.47;1.30;;;;;;;8.20;59.30;62841.50;5010969;28;20223;-82
2023/01/06 07:13:21;;;;;;;2.33;0.90;;;;;;;8.34;59.02;62863.06;5012967;28;20208;-79
2023/01/06 07:15:48;;;;;;;1.33;0.93;;;;;;;8.45;57.87;62869.38;5010940;28;20223;-79
2023/01/06 07:18:15;;;;;;;1.38;1.20;;;;;;;8.60;58.13;62885.38;5014918;28;20206;-80
2023/01/06 07:20:47;;;;;;;1.00;1.00;;;;;;;8.65;57.53;62887.50;5013095;28;20203;-78
2023/01/06 07:23:14;;;;;;;2.45;0.93;;;;;;;8.98;55.56;62926.69;5011178;28;20222;-78
2023/01/06 07:28:16;;;;;;;1.23;1.23;;;;;;;8.82;56.98;62905.06;5116893;22;20247;-80
2023/01/06 07:30:45;;;;;;;1.13;1.10;;;;;;;8.91;57.30;62914.88;5051196;28;20221;-81
2023/01/06 07:33:12;;;;;;;1.80;1.65;;;;;;;8.65;58.59;62890.56;5052553;28;20223;-79
2023/01/06 07:35:41;;;;;;;0.70;0.70;;;;;;;8.58;58.56;62882.78;5031798;28;20203;-77
2023/01/06 07:38:10;;;;;;;3.85;0.90;;;;;;;8.49;58.78;62874.00;5031859;28;20209;-79
2023/01/06 07:40:37;;;;;;;1.80;1.40;;;;;;;8.50;59.15;62877.06;5031091;28;20202;-81
2023/01/06 07:43:05;;;;;;;1.20;1.10;;;;;;;8.45;59.39;62867.34;5040168;28;20222;-79
2023/01/06 07:45:34;;;;;;;0.82;0.68;;;;;;;8.45;59.10;62867.34;5030472;28;20234;-82
2023/01/06 07:48:03;;;;;;;1.13;1.10;;;;;;;8.48;59.13;62873.00;5035114;28;20195;-80
2023/01/06 07:50:36;;;;;;;0.90;0.90;;;;;;;8.44;58.72;62865.81;5032129;28;20198;-80
2023/01/06 07:53:03;;;;;;;1.27;1.20;;;;;;;8.41;59.39;62867.78;5031232;28;20514;-81
2023/01/06 07:55:30;;;;;;;0.55;0.55;;;;;;;8.44;58.83;62865.81;5029817;28;20210;-80
2023/01/06 07:57:58;;;;;;;0.73;0.73;;;;;;;8.47;58.92;62874.50;5030255;28;20241;-81
2023/01/06 08:00:25;;;;;;;0.70;0.70;;;;;;;8.51;59.32;62873.53;5034239;28;20194;-81
2023/01/06 08:02:54;;;;;;;1.02;1.02;;;;;;;8.52;58.72;62871.53;5051850;28;20197;-81
2023/01/06 08:05:22;;;;;;;0.90;0.90;;;;;;;8.55;58.43;62874.63;5045164;28;20202;-82
2023/01/06 08:07:49;;;;;;;1.02;1.02;;;;;;;8.48;59.34;62875.53;5031939;28;20226;-80
2023/01/06 08:10:16;;;;;;;1.05;0.93;;;;;;;8.53;59.35;62875.09;5040202;28;20208;-80
2023/01/06 08:12:43;;;;;;;1.48;0.98;;;;;;;8.57;59.17;62881.78;5048652;28;20226;-81
2023/01/06 08:15:11;;;;;;;1.10;1.10;;;;;;;8.60;58.89;62882.84;5050051;28;20194;-80
2023/01/06 08:17:38;;;;;;;0.95;0.95;;;;;;;8.46;58.51;62870.91;5052592;28;20226;-84
2023/01/06 08:20:06;;;;;;;1.00;1.00;;;;;;;8.50;58.70;62875.06;5053244;28;20206;-81
2023/01/06 08:22:34;;;;;;;1.10;1.10;;;;;;;8.62;58.46;62884.41;5051561;28;20289;-81
2023/01/06 08:25:01;;;;;;;1.00;1.00;;;;;;;8.71;58.36;62898.78;5052863;28;20216;-81
2023/01/06 08:27:28;;;;;;;1.00;1.00;;;;;;;8.67;57.41;62887.53;5054146;28;20244;-79
2023/01/06 08:29:56;;;;;;;0.80;0.80;;;;;;;8.88;56.51;62911.25;5051678;28;20234;-81
2023/01/06 08:32:23;;;;;;;0.95;0.95;;;;;;;8.86;55.94;62911.72;5050167;28;20225;-80
2023/01/06 08:34:50;;;;;;;0.93;0.93;;;;;;;8.80;55.69;62906.03;5052543;28;20217;-80
2023/01/06 08:37:18;;;;;;;0.52;0.52;;;;;;;8.88;55.47;62913.81;5048267;28;20264;-80
2023/01/06 08:39:46;;;;;;;0.70;0.60;;;;;;;9.01;55.73;62927.75;5047975;28;20419;-80
2023/01/06 08:42:13;;;;;;;0.63;0.63;;;;;;;8.94;56.34;62923.06;5047165;28;20248;-78
2023/01/06 08:44:40;;;;;;;0.90;0.90;;;;;;;9.07;57.07;62933.97;5047618;28;20261;-81
2023/01/06 08:47:08;;;;;;;0.90;0.90;;;;;;;9.23;56.85;62950.50;5048841;28;20352;-77
2023/01/06 08:49:35;;;;;;;0.82;0.82;;;;;;;9.14;56.13;62941.19;5055302;28;20209;-78
2023/01/06 08:52:02;;;;;;;0.65;0.65;;;;;;;8.98;56.74;62927.19;5049734;28;20218;-78
2023/01/06 08:54:29;;;;;;;0.85;0.80;;;;;;;8.98;56.85;62927.19;5051208;28;20220;-78
2023/01/06 08:56:57;;;;;;;1.27;1.15;;;;;;;9.03;56.47;62929.81;5048870;28;20225;-78
2023/01/06 08:59:24;;;;;;;0.77;0.77;;;;;;;9.07;56.77;62935.97;5049010;28;20202;-78
2023/01/06 09:01:51;;;;;;;0.70;0.70;;;;;;;9.04;56.81;62933.38;5047022;28;20236;-80
2023/01/06 09:04:18;;;;;;;0.98;0.98;;;;;;;9.09;57.19;62938.06;5047201;28;20206;-77
2023/01/06 09:06:46;;;;;;;0.88;0.88;;;;;;;9.09;56.50;62932.97;5047251;28;20557;-79
2023/01/06 09:09:13;;;;;;;1.30;1.10;;;;;;;9.19;56.51;62945.84;5048802;28;20262;-80
2023/01/06 09:11:42;;;;;;;3.03;0.93;;;;;;;9.17;55.74;62944.31;5051750;28;20278;-80
2023/01/06 09:14:12;;;;;;;1.10;0.85;;;;;;;9.28;56.59;62952.63;5047948;28;20265;-79
2023/01/06 09:16:39;;;;;;;1.25;0.95;;;;;;;9.34;55.67;62964.41;5050835;28;20226;-81
2023/01/06 09:19:09;;;;;;;1.50;1.02;;;;;;;9.31;56.04;62951.16;5051981;28;20204;-80
2023/01/06 09:21:36;;;;;;;1.13;1.00;;;;;;;9.33;55.75;62960.84;5051294;28;20225;-78
2023/01/06 09:24:03;;;;;;;1.05;0.73;;;;;;;9.37;55.61;62967.00;5048930;28;20226;-77
2023/01/06 09:26:30;;;;;;;1.02;1.02;;;;;;;8.98;57.51;62926.69;5049403;28;20256;-80
2023/01/06 09:28:58;;;;;;;1.02;0.93;;;;;;;9.10;57.13;62937.06;5049975;28;20281;-83
2023/01/06 09:31:26;;;;;;;1.23;1.10;;;;;;;9.08;57.05;62932.44;5050151;28;20290;-80
2023/01/06 09:33:53;;;;;;;0.60;0.60;;;;;;;9.21;57.21;62945.38;5048625;28;20202;-81
2023/01/06 09:36:20;;;;;;;1.55;0.98;;;;;;;9.27;56.52;62956.66;5049342;28;20230;-80
2023/01/06 09:38:47;;;;;;;0.98;0.90;;;;;;;9.32;56.25;62959.28;5050646;28;20212;-80
2023/01/06 09:41:46;;;;;;;0.77;0.77;;;;;;;9.19;56.54;62943.31;5041888;28;20249;-80
2023/01/06 09:44:16;;;;;;;1.25;1.15;;;;;;;9.30;56.76;62960.28;4993211;28;20239;-79
2023/01/06 09:46:46;;;;;;;1.17;1.00;;;;;;;9.27;57.24;62952.09;5036761;28;20455;-80
2023/01/06 09:49:24;;;;;;;2.55;1.17;;;;;;;9.32;57.83;62962.34;5046968;28;20190;-80
2023/01/06 09:51:54;;;;;;;1.92;1.35;;;;;;;9.21;58.23;62947.91;5047194;28;20222;-80
2023/01/06 09:54:24;;;;;;;1.65;1.15;;;;;;;9.43;55.68;62973.19;5049427;28;20228;-81
2023/01/06 09:56:57;;;;;;;1.17;1.17;;;;;;;9.54;56.23;62982.03;5048804;28;20228;-81
2023/01/06 09:59:31;;;;;;;1.17;1.08;;;;;;;9.55;56.71;62983.06;5048532;28;20200;-80
2023/01/06 10:02:01;;;;;;;2.70;1.33;;;;;;;9.56;55.84;62981.03;5029723;28;20217;-82
2023/01/06 10:04:31;;;;;;;0.70;0.70;;;;;;;9.74;54.05;63002.19;5048442;28;20258;-79
2023/01/06 10:07:15;;;;;;;1.00;0.90;;;;;;;9.79;53.95;63007.38;5050379;28;20237;-80
2023/01/06 10:09:52;;;;;;;1.13;1.10;;;;;;;9.81;52.92;63011.97;5051116;28;20257;-81
2023/01/06 10:12:32;;;;;;;0.80;0.80;;;;;;;9.70;53.33;62998.06;5032897;28;20277;-80
2023/01/06 10:15:09;;;;;;;1.00;1.00;;;;;;;9.91;52.57;63019.78;5030285;28;20420;-79
2023/01/06 10:17:52;;;;;;;0.60;0.57;;;;;;;9.71;53.75;63007.25;5048182;28;20216;-80
2023/01/06 10:20:41;;;;;;;1.98;0.90;;;;;;;9.77;53.15;63003.28;5050012;28;20233;-79
2023/01/06 10:23:31;;;;;;;1.00;0.98;;;;;;;9.81;53.41;63012.50;5029393;28;20199;-79
2023/01/06 10:26:06;;;;;;;0.75;0.75;;;;;;;9.74;53.40;62997.09;5028606;28;20210;-81
2023/01/06 10:28:35;;;;;;;0.75;0.75;;;;;;;9.91;53.10;63019.78;5045763;28;20415;-80
2023/01/06 10:31:06;;;;;;;0.80;0.80;;;;;;;9.90;53.41;63019.28;5051144;28;20212;-79
2023/01/06 10:33:38;;;;;;;2.15;0.93;;;;;;;9.96;53.37;63022.94;5045586;28;20193;-79
2023/01/06 10:36:13;;;;;;;0.47;0.47;;;;;;;9.85;51.63;63011.56;5029775;28;20215;-80
2023/01/06 10:38:43;;;;;;;1.20;1.10;;;;;;;9.87;51.32;63013.09;5029875;28;20182;-80
2023/01/06 10:41:18;;;;;;;1.05;0.95;;;;;;;9.90;50.93;63019.28;5030805;28;20249;-80
2023/01/06 10:43:45;;;;;;;1.23;0.98;;;;;;;9.97;51.13;63026.00;5029765;28;20194;-81
2023/01/06 10:46:12;;;;;;;1.00;1.00;;;;;;;9.99;50.67;63035.69;5044669;28;20217;-78
2023/01/06 10:48:40;;;;;;;1.13;0.65;;;;;;;9.93;51.04;63019.81;5048493;28;20217;-80
2023/01/06 10:51:32;;;;;;;1.38;1.02;;;;;;;9.96;51.90;63024.94;5042718;28;20217;-80
2023/01/06 10:54:01;;;;;;;1.23;0.73;;;;;;;9.90;51.66;63019.28;5040628;28;20225;-80
2023/01/06 10:56:35;;;;;;;1.10;1.08;;;;;;;10.02;51.63;63033.72;5045744;28;20221;-82
2023/01/06 10:59:07;;;;;;;1.50;1.40;;;;;;;9.94;52.46;63020.84;5038393;28;20201;-80
2023/01/06 11:01:48;;;;;;;1.27;0.98;;;;;;;10.04;52.62;63035.78;5039531;28;20277;-80
2023/01/06 11:04:18;;;;;;;1.65;1.30;;;;;;;9.99;52.34;63031.09;5044920;28;20210;-82
2023/01/06 11:06:52;;;;;;;1.58;1.05;;;;;;;10.07;52.54;63038.88;5038466;28;20240;-80
2023/01/06 11:09:28;;;;;;;1.00;1.00;;;;;;;9.92;52.09;63018.28;5038949;28;20258;-80
2023/01/06 11:11:57;;;;;;;1.08;1.08;;;;;;;9.96;52.10;63027.50;5043470;28;20222;-80
2023/01/06 11:14:28;;;;;;;1.10;1.10;;;;;;;9.93;52.39;63024.38;5039450;28;20213;-80
2023/01/06 11:17:03;;;;;;;1.10;1.10;;;;;;;9.99;51.60;63028.06;5055217;28;20217;-84
2023/01/06 11:19:38;;;;;;;1.15;1.15;;;;;;;10.16;51.97;63043.63;5054490;28;20202;-81
2023/01/06 11:22:06;;;;;;;1.27;1.27;;;;;;;10.10;52.09;63042.53;5050534;28;20225;-81
2023/01/06 11:24:48;;;;;;;2.47;1.27;;;;;;;10.11;51.00;63040.50;5047754;28;20201;-80
2023/01/06 11:27:17;;;;;;;2.25;1.40;;;;;;;10.16;50.65;63043.63;5029816;28;20290;-81
2023/01/06 11:29:44;;;;;;;1.33;1.23;;;;;;;10.06;52.11;63032.75;5029150;28;20403;-81
2023/01/06 11:32:16;;;;;;;1.63;1.48;;;;;;;10.04;52.13;63033.22;5030142;28;20219;-80
2023/01/06 11:34:52;;;;;;;1.00;1.00;;;;;;;9.89;54.09;63010.06;5037704;28;20579;-77
2023/01/06 11:37:30;;;;;;;0.85;0.85;;;;;;;9.78;54.27;63009.41;5047781;28;20222;-79
2023/01/06 11:39:59;;;;;;;1.85;1.10;;;;;;;9.48;55.14;62975.81;5048041;28;20217;-79
2023/01/06 11:42:27;;;;;;;2.60;1.25;;;;;;;9.60;54.63;62985.69;5047587;28;20232;-81
2023/01/06 11:44:54;;;;;;;1.23;1.13;;;;;;;9.44;54.90;62968.63;5047505;28;20198;-78
2023/01/06 11:47:25;;;;;;;1.25;1.00;;;;;;;9.68;54.43;62996.00;5056632;28;20300;-81
2023/01/06 11:49:56;;;;;;;1.55;1.05;;;;;;;9.64;53.57;62989.84;5055542;28;20193;-80
2023/01/06 11:52:25;;;;;;;1.23;0.70;;;;;;;9.77;53.53;63005.28;5051641;28;20226;-80
2023/01/06 11:55:01;;;;;;;1.38;1.27;;;;;;;9.70;54.69;63000.63;5051941;28;20200;-80
2023/01/06 11:57:37;;;;;;;0.95;0.88;;;;;;;9.70;55.27;63000.63;5052907;28;20224;-81
2023/01/06 12:00:25;;;;;;;1.15;1.15;;;;;;;9.69;54.76;63000.09;5054327;28;20253;-80
2023/01/06 12:03:02;;;;;;;1.30;1.20;;;;;;;9.64;54.93;62989.84;5052691;28;20208;-79
2023/01/06 12:05:38;;;;;;;1.35;1.25;;;;;;;9.71;55.03;62999.09;5053403;28;20185;-79
2023/01/06 12:08:14;;;;;;;0.80;0.80;;;;;;;9.65;54.78;62995.94;5053124;28;20241;-79